createdAt,value
2023-05-17T00:02:01.167Z,14.53
2023-05-17T00:04:29.766Z,14.49
2023-05-17T00:06:58.194Z,14.49
2023-05-17T00:09:28.055Z,14.48
2023-05-17T00:11:56.520Z,14.43
2023-05-17T00:14:25.237Z,14.44
2023-05-17T00:16:53.884Z,14.40
2023-05-17T00:19:23.477Z,14.38
2023-05-17T00:21:51.946Z,14.40
2023-05-17T00:24:20.346Z,14.40
2023-05-17T00:26:50.168Z,14.41
2023-05-17T00:29:18.638Z,14.39
2023-05-17T00:31:47.047Z,14.36
2023-05-17T00:34:15.552Z,14.36
2023-05-17T00:36:44.009Z,14.34
2023-05-17T00:39:13.668Z,14.34
2023-05-17T00:41:42.076Z,14.32
2023-05-17T00:44:13.127Z,14.34
2023-05-17T00:46:42.000Z,14.31
2023-05-17T00:49:10.510Z,14.32
2023-05-17T00:51:39.481Z,14.36
2023-05-17T00:54:08.315Z,14.35
2023-05-17T00:56:37.556Z,14.30
2023-05-17T00:59:08.028Z,14.33
2023-05-17T01:01:42.690Z,14.30
2023-05-17T01:04:12.262Z,14.28
2023-05-17T01:06:42.053Z,14.24
2023-05-17T01:09:11.572Z,14.24
2023-05-17T01:11:52.264Z,14.26
2023-05-17T01:14:35.006Z,14.23
2023-05-17T01:17:08.384Z,14.20
2023-05-17T01:19:53.736Z,14.17
2023-05-17T01:22:36.450Z,14.19
2023-05-17T01:25:28.480Z,14.17
2023-05-17T01:28:03.533Z,14.13
2023-05-17T01:30:34.072Z,14.14
2023-05-17T01:33:04.944Z,14.15
2023-05-17T01:35:33.459Z,14.13
2023-05-17T01:38:01.837Z,14.15
2023-05-17T01:40:31.863Z,14.14
2023-05-17T01:43:11.405Z,14.00
2023-05-17T01:45:45.592Z,13.90
2023-05-17T01:48:22.843Z,14.10
2023-05-17T01:50:58.496Z,14.06
2023-05-17T01:53:32.228Z,14.08
2023-05-17T01:56:06.080Z,14.08
2023-05-17T01:58:42.745Z,13.81
2023-05-17T02:01:12.566Z,14.04
2023-05-17T02:03:41.174Z,14.01
2023-05-17T02:06:09.876Z,14.01
2023-05-17T02:08:38.396Z,13.98
2023-05-17T02:11:07.016Z,13.95
2023-05-17T02:13:36.856Z,13.95
2023-05-17T02:16:06.631Z,13.95
2023-05-17T02:18:36.046Z,13.93
2023-05-17T02:21:04.903Z,13.94
2023-05-17T02:23:33.418Z,13.95
2023-05-17T02:26:01.814Z,13.89
2023-05-17T02:28:30.208Z,13.88
2023-05-17T02:31:00.135Z,13.83
2023-05-17T02:33:28.824Z,13.79
2023-05-17T02:35:58.167Z,13.81
2023-05-17T02:38:26.573Z,13.83
2023-05-17T02:40:55.423Z,13.79
2023-05-17T02:43:24.210Z,13.80
2023-05-17T02:45:52.660Z,13.76
2023-05-17T02:48:22.575Z,13.70
2023-05-17T02:50:51.296Z,13.69
2023-05-17T02:53:19.946Z,13.67
2023-05-17T02:55:48.809Z,13.65
2023-05-17T02:58:18.362Z,13.63
2023-05-17T03:00:47.417Z,13.62
2023-05-17T03:03:17.113Z,13.56
2023-05-17T03:05:47.142Z,13.55
2023-05-17T03:08:15.727Z,13.55
2023-05-17T03:10:44.140Z,13.56
2023-05-17T03:13:13.021Z,13.51
2023-05-17T03:15:41.976Z,13.52
2023-05-17T03:18:10.564Z,13.55
2023-05-17T03:20:41.120Z,13.55
2023-05-17T03:23:11.116Z,13.56
2023-05-17T03:25:50.090Z,13.52
2023-05-17T03:28:18.824Z,13.54
2023-05-17T03:30:47.637Z,13.53
2023-05-17T03:33:18.102Z,13.50
2023-05-17T03:35:47.175Z,13.50
2023-05-17T03:38:17.136Z,13.51
2023-05-17T03:40:45.819Z,13.49
2023-05-17T03:43:14.237Z,13.50
2023-05-17T03:45:42.832Z,13.48
2023-05-17T03:48:11.297Z,13.44
2023-05-17T03:50:41.158Z,13.44
2023-05-17T03:53:11.223Z,13.24
2023-05-17T03:55:41.806Z,13.40
2023-05-17T03:58:10.245Z,13.42
2023-05-17T04:00:38.741Z,13.42
2023-05-17T04:03:14.050Z,13.67
2023-05-17T04:05:42.753Z,13.62
2023-05-17T04:08:11.162Z,13.57
2023-05-17T04:10:42.554Z,13.56
2023-05-17T04:13:11.337Z,13.54
2023-05-17T04:15:40.626Z,13.53
2023-05-17T04:18:09.963Z,13.51
2023-05-17T04:20:38.476Z,13.50
2023-05-17T04:23:06.945Z,13.50
2023-05-17T04:25:37.014Z,13.51
2023-05-17T04:28:07.898Z,13.52
2023-05-17T04:30:36.901Z,13.50
2023-05-17T04:33:06.169Z,13.49
2023-05-17T04:35:34.741Z,13.47
2023-05-17T04:38:03.515Z,13.44
2023-05-17T04:40:32.322Z,13.44
2023-05-17T04:43:00.935Z,13.42
2023-05-17T04:45:33.530Z,13.43
2023-05-17T04:48:02.794Z,13.43
2023-05-17T04:50:32.269Z,13.42
2023-05-17T04:53:00.730Z,13.44
2023-05-17T04:55:31.249Z,13.44
2023-05-17T04:58:00.285Z,13.46
2023-05-17T05:00:28.877Z,13.51
2023-05-17T05:03:06.094Z,13.52
2023-05-17T05:05:35.929Z,13.57
2023-05-17T05:08:06.953Z,13.63
2023-05-17T05:10:35.501Z,13.63
2023-05-17T05:13:04.061Z,13.67
2023-05-17T05:15:33.678Z,13.65
2023-05-17T05:18:02.210Z,13.67
2023-05-17T05:20:33.712Z,13.73
2023-05-17T05:23:06.175Z,13.72
2023-05-17T05:25:36.125Z,13.77
2023-05-17T05:28:04.558Z,13.81
2023-05-17T05:30:34.084Z,13.93
2023-05-17T05:33:02.591Z,14.04
2023-05-17T05:35:32.559Z,14.17
2023-05-17T05:38:01.283Z,14.36
2023-05-17T05:40:30.106Z,14.44
2023-05-17T05:42:58.908Z,14.44
2023-05-17T05:45:27.319Z,14.59
2023-05-17T05:47:59.981Z,14.60
2023-05-17T05:50:29.177Z,14.68
2023-05-17T05:53:17.218Z,14.72
2023-05-17T05:55:50.777Z,14.77
2023-05-17T05:58:19.860Z,14.90
2023-05-17T06:00:49.166Z,15.17
2023-05-17T06:03:17.791Z,15.53
2023-05-17T06:05:46.331Z,15.97
2023-05-17T06:08:16.303Z,16.52
2023-05-17T06:10:47.102Z,17.08
2023-05-17T06:13:15.799Z,17.60
2023-05-17T06:15:44.203Z,18.01
2023-05-17T06:18:12.764Z,18.36
2023-05-17T06:20:41.201Z,18.67
2023-05-17T06:23:09.638Z,18.81
2023-05-17T06:25:39.683Z,18.99
2023-05-17T06:28:09.396Z,19.08
2023-05-17T06:30:37.854Z,19.23
2023-05-17T06:33:06.676Z,19.37
2023-05-17T06:35:51.738Z,19.64
2023-05-17T06:38:23.724Z,19.98
2023-05-17T06:40:55.398Z,20.14
2023-05-17T06:43:24.138Z,20.19
2023-05-17T06:45:52.749Z,20.51
2023-05-17T06:48:21.290Z,20.73
2023-05-17T06:50:49.796Z,20.83
2023-05-17T06:53:18.290Z,21.09
2023-05-17T06:55:46.680Z,21.15
2023-05-17T06:58:16.597Z,21.15
2023-05-17T07:00:45.049Z,21.21
2023-05-17T07:03:13.832Z,21.46
2023-05-17T07:05:42.339Z,21.59
2023-05-17T07:08:11.716Z,21.48
2023-05-17T07:10:40.188Z,21.46
2023-05-17T07:13:08.731Z,21.38
2023-05-17T07:15:39.236Z,21.38
2023-05-17T07:18:07.795Z,21.34
2023-05-17T07:20:36.266Z,21.18
2023-05-17T07:23:04.693Z,21.20
2023-05-17T07:25:33.145Z,21.39
2023-05-17T07:28:01.553Z,21.19
2023-05-17T07:30:30.145Z,21.38
2023-05-17T07:33:00.080Z,21.52
2023-05-17T07:35:28.771Z,21.80
2023-05-17T07:37:57.451Z,21.93
2023-05-17T07:40:25.990Z,21.78
2023-05-17T07:42:54.479Z,21.82
2023-05-17T07:45:22.981Z,22.00
2023-05-17T07:47:51.596Z,22.05
2023-05-17T07:50:21.534Z,21.95
2023-05-17T07:52:50.056Z,22.07
2023-05-17T07:55:19.918Z,22.08
2023-05-17T07:57:48.685Z,22.17
2023-05-17T08:00:19.445Z,22.16
2023-05-17T08:02:47.944Z,21.98
2023-05-17T08:05:16.569Z,21.83
2023-05-17T08:07:46.780Z,21.50
2023-05-17T08:10:15.250Z,21.29
2023-05-17T08:12:43.752Z,21.23
2023-05-17T08:15:12.379Z,21.29
2023-05-17T08:17:41.152Z,21.35
2023-05-17T08:20:11.080Z,21.23
2023-05-17T08:22:39.642Z,21.13
2023-05-17T08:25:10.143Z,21.08
2023-05-17T08:27:39.815Z,21.07
2023-05-17T08:30:12.094Z,20.86
2023-05-17T08:32:45.279Z,20.68
2023-05-17T08:35:13.942Z,20.63
2023-05-17T08:37:43.105Z,20.58
2023-05-17T08:40:14.999Z,20.50
2023-05-17T08:42:44.604Z,20.37
2023-05-17T08:45:14.553Z,20.47
2023-05-17T08:47:44.903Z,20.47
2023-05-17T08:50:14.469Z,20.55
2023-05-17T08:52:47.432Z,20.58
2023-05-17T08:55:18.465Z,20.63
2023-05-17T08:57:47.845Z,20.65
2023-05-17T09:00:21.199Z,20.34
2023-05-17T09:02:52.527Z,20.50
2023-05-17T09:05:21.498Z,20.51
2023-05-17T09:07:50.885Z,20.67
2023-05-17T09:10:22.088Z,20.77
2023-05-17T09:12:50.875Z,20.82
2023-05-17T09:15:21.056Z,20.96
2023-05-17T09:17:53.808Z,20.98
2023-05-17T09:20:26.123Z,20.97
2023-05-17T09:22:54.753Z,21.05
2023-05-17T09:25:25.841Z,20.99
2023-05-17T09:27:54.443Z,20.96
2023-05-17T09:30:29.511Z,20.93
2023-05-17T09:32:59.196Z,21.06
2023-05-17T09:35:30.973Z,21.22
2023-05-17T09:38:09.985Z,21.33
2023-05-17T09:40:44.332Z,21.40
2023-05-17T09:43:13.880Z,21.45
2023-05-17T09:45:42.428Z,21.47
2023-05-17T09:48:15.509Z,21.56
2023-05-17T09:50:48.033Z,21.66
2023-05-17T09:53:27.238Z,21.69
2023-05-17T09:55:58.706Z,21.76
2023-05-17T09:58:29.008Z,21.88
2023-05-17T10:01:02.053Z,21.98
2023-05-17T10:03:33.499Z,21.99
2023-05-17T10:06:04.057Z,22.02
2023-05-17T10:08:33.979Z,22.13
2023-05-17T10:11:09.637Z,22.20
2023-05-17T10:13:45.574Z,22.03
2023-05-17T10:16:14.817Z,22.24
2023-05-17T10:18:43.718Z,22.25
2023-05-17T10:21:12.932Z,22.29
2023-05-17T10:23:44.350Z,22.33
2023-05-17T10:26:14.435Z,22.49
2023-05-17T10:28:44.178Z,22.69
2023-05-17T10:31:13.929Z,22.67
2023-05-17T10:33:44.584Z,22.67
2023-05-17T10:36:18.585Z,22.73
2023-05-17T10:38:47.487Z,22.65
2023-05-17T10:41:19.623Z,22.59
2023-05-17T10:43:49.988Z,22.61
2023-05-17T10:46:21.929Z,22.60
2023-05-17T10:48:52.233Z,22.51
2023-05-17T10:51:25.742Z,22.47
2023-05-17T10:54:09.140Z,22.64
2023-05-17T10:56:42.261Z,22.51
2023-05-17T10:59:22.068Z,22.41
2023-05-17T11:01:56.171Z,22.37
2023-05-17T11:04:26.419Z,22.53
2023-05-17T11:06:57.363Z,22.61
2023-05-17T11:09:26.325Z,22.46
2023-05-17T11:12:10.149Z,22.49
2023-05-17T11:14:48.241Z,22.60
2023-05-17T11:17:18.966Z,22.78
2023-05-17T11:20:11.600Z,22.79
2023-05-17T11:22:42.949Z,22.39
2023-05-17T11:25:13.369Z,21.81
2023-05-17T11:27:47.470Z,21.83
2023-05-17T11:30:20.919Z,21.55
2023-05-17T11:32:51.673Z,21.30
2023-05-17T11:35:24.872Z,21.13
2023-05-17T11:37:54.779Z,21.20
2023-05-17T11:40:28.386Z,21.19
2023-05-17T11:43:19.834Z,21.20
2023-05-17T11:45:52.799Z,21.12
2023-05-17T11:48:23.592Z,21.01
2023-05-17T11:50:55.364Z,20.96
2023-05-17T11:53:24.345Z,20.97
2023-05-17T11:55:53.952Z,20.92
2023-05-17T11:58:27.220Z,20.99
2023-05-17T12:00:57.843Z,21.04
2023-05-17T12:03:27.860Z,21.14
2023-05-17T12:06:04.887Z,21.51
2023-05-17T12:08:34.504Z,21.62
2023-05-17T12:11:03.513Z,21.81
2023-05-17T12:13:34.554Z,22.02
2023-05-17T12:16:06.092Z,22.21
2023-05-17T12:18:38.925Z,22.14
2023-05-17T12:21:08.461Z,22.37
2023-05-17T12:23:39.785Z,22.36
2023-05-17T12:26:10.350Z,22.40
2023-05-17T12:28:42.334Z,22.39
2023-05-17T12:31:13.785Z,22.51
2023-05-17T12:33:44.201Z,22.45
2023-05-17T12:36:14.157Z,22.46
2023-05-17T12:38:43.762Z,22.44
2023-05-17T12:41:13.642Z,22.39
2023-05-17T12:43:46.258Z,22.39
2023-05-17T12:46:15.720Z,22.44
2023-05-17T12:48:44.640Z,22.44
2023-05-17T12:51:14.488Z,22.36
2023-05-17T12:53:44.533Z,22.35
2023-05-17T12:56:18.155Z,22.44
2023-05-17T12:59:07.629Z,22.50
2023-05-17T13:01:37.326Z,22.56
2023-05-17T13:04:06.398Z,22.56
2023-05-17T13:06:50.288Z,22.61
2023-05-17T13:09:21.232Z,22.66
2023-05-17T13:11:52.934Z,22.68
2023-05-17T13:14:41.170Z,22.58
2023-05-17T13:17:12.581Z,22.54
2023-05-17T13:19:41.178Z,22.58
2023-05-17T13:22:10.027Z,22.52
2023-05-17T13:24:40.213Z,21.94
2023-05-17T13:27:09.599Z,22.46
2023-05-17T13:29:43.210Z,22.40
2023-05-17T13:32:13.898Z,22.42
2023-05-17T13:34:42.645Z,22.36
2023-05-17T13:37:12.695Z,22.32
2023-05-17T13:39:41.912Z,22.36
2023-05-17T13:42:11.170Z,22.44
2023-05-17T13:44:41.936Z,22.53
2023-05-17T13:47:10.470Z,22.51
2023-05-17T13:49:38.921Z,22.32
2023-05-17T13:52:09.077Z,22.16
2023-05-17T13:54:38.330Z,22.19
2023-05-17T13:57:07.340Z,22.24
2023-05-17T13:59:35.832Z,22.23
2023-05-17T14:02:05.695Z,22.23
2023-05-17T14:04:35.138Z,22.32
2023-05-17T14:07:04.636Z,22.41
2023-05-17T14:09:34.605Z,22.42
2023-05-17T14:12:03.175Z,22.37
2023-05-17T14:14:32.122Z,22.40
2023-05-17T14:17:01.621Z,22.33
2023-05-17T14:19:31.895Z,22.33
2023-05-17T14:22:00.555Z,22.24
2023-05-17T14:24:28.929Z,22.14
2023-05-17T14:26:57.953Z,21.95
2023-05-17T14:29:26.360Z,21.77
2023-05-17T14:31:54.906Z,21.70
2023-05-17T14:34:23.480Z,21.71
2023-05-17T14:36:53.494Z,21.62
2023-05-17T14:39:22.112Z,21.75
2023-05-17T14:41:50.453Z,21.87
2023-05-17T14:44:18.887Z,21.79
2023-05-17T14:46:47.295Z,21.63
2023-05-17T14:49:16.102Z,21.44
2023-05-17T14:51:46.098Z,21.53
2023-05-17T14:54:16.851Z,21.57
2023-05-17T14:56:45.605Z,21.55
2023-05-17T14:59:14.300Z,21.50
2023-05-17T15:01:43.763Z,21.39
2023-05-17T15:04:12.644Z,21.27
2023-05-17T15:06:42.305Z,21.22
2023-05-17T15:09:13.486Z,21.11
2023-05-17T15:11:43.365Z,21.06
2023-05-17T15:14:14.050Z,21.01
2023-05-17T15:16:42.597Z,20.94
2023-05-17T15:19:11.112Z,20.86
2023-05-17T15:21:40.719Z,20.77
2023-05-17T15:24:11.094Z,20.70
2023-05-17T15:26:43.200Z,20.62
2023-05-17T15:29:11.810Z,20.57
2023-05-17T15:31:41.169Z,20.47
2023-05-17T15:34:09.812Z,20.45
2023-05-17T15:36:38.486Z,20.30
2023-05-17T15:39:07.089Z,20.22
2023-05-17T15:41:35.910Z,20.23
2023-05-17T15:44:08.129Z,20.14
2023-05-17T15:46:36.716Z,20.12
2023-05-17T15:49:05.162Z,20.07
2023-05-17T15:51:33.711Z,20.02
2023-05-17T15:54:02.170Z,19.97
2023-05-17T15:56:30.703Z,19.89
2023-05-17T15:59:01.039Z,19.82
2023-05-17T16:01:32.997Z,19.76
2023-05-17T16:04:01.583Z,19.66
2023-05-17T16:06:34.940Z,19.60
2023-05-17T16:09:03.859Z,19.58
2023-05-17T16:11:32.446Z,19.59
2023-05-17T16:14:00.884Z,19.54
2023-05-17T16:16:29.229Z,19.56
2023-05-17T16:18:59.207Z,19.49
2023-05-17T16:21:27.786Z,19.50
2023-05-17T16:23:56.164Z,19.44
2023-05-17T16:26:24.606Z,19.41
2023-05-17T16:28:53.060Z,19.35
2023-05-17T16:31:21.803Z,19.35
2023-05-17T16:33:50.404Z,19.39
2023-05-17T16:36:22.672Z,19.42
2023-05-17T16:38:51.835Z,19.43
2023-05-17T16:41:20.223Z,19.38
2023-05-17T16:43:48.686Z,19.24
2023-05-17T16:46:19.101Z,19.23
2023-05-17T16:48:47.533Z,19.14
2023-05-17T16:51:15.899Z,19.07
2023-05-17T16:53:45.787Z,19.03
2023-05-17T16:56:14.169Z,19.05
2023-05-17T16:58:42.943Z,19.04
2023-05-17T17:01:11.952Z,19.07
2023-05-17T17:03:40.456Z,19.07
2023-05-17T17:06:09.040Z,19.09
2023-05-17T17:08:38.268Z,18.98
2023-05-17T17:11:11.352Z,18.87
2023-05-17T17:13:39.911Z,18.80
2023-05-17T17:16:08.303Z,18.75
2023-05-17T17:18:36.799Z,18.69
2023-05-17T17:21:07.819Z,18.55
2023-05-17T17:23:36.789Z,18.41
2023-05-17T17:26:05.278Z,18.31
2023-05-17T17:28:35.091Z,18.26
2023-05-17T17:31:03.542Z,18.22
2023-05-17T17:33:32.049Z,18.16
2023-05-17T17:36:00.498Z,18.11
2023-05-17T17:38:28.865Z,18.10
2023-05-17T17:40:57.332Z,18.02
2023-05-17T17:43:25.802Z,17.96
2023-05-17T17:45:55.576Z,17.93
2023-05-17T17:48:23.926Z,17.86
2023-05-17T17:50:52.433Z,17.81
2023-05-17T17:53:20.861Z,17.74
2023-05-17T17:55:49.317Z,17.72
2023-05-17T17:58:17.692Z,17.70
2023-05-17T18:00:46.122Z,17.70
2023-05-17T18:03:16.883Z,17.66
2023-05-17T18:05:45.344Z,17.62
2023-05-17T18:08:13.872Z,17.57
2023-05-17T18:10:42.258Z,17.55
2023-05-17T18:13:10.692Z,17.54
2023-05-17T18:15:39.226Z,17.54
2023-05-17T18:18:07.779Z,17.51
2023-05-17T18:20:37.773Z,17.44
2023-05-17T18:23:06.137Z,17.44
2023-05-17T18:25:36.758Z,17.44
2023-05-17T18:28:06.807Z,17.36
2023-05-17T18:30:37.328Z,17.32
2023-05-17T18:33:07.151Z,17.27
2023-05-17T18:35:37.338Z,17.20
2023-05-17T18:38:05.851Z,17.15
2023-05-17T18:40:34.280Z,17.12
2023-05-17T18:43:02.657Z,17.10
2023-05-17T18:45:32.029Z,17.05
2023-05-17T18:48:00.543Z,17.04
2023-05-17T18:50:29.168Z,17.03
2023-05-17T18:53:00.068Z,16.99
2023-05-17T18:55:28.569Z,16.94
2023-05-17T18:57:57.028Z,16.91
2023-05-17T19:00:25.512Z,16.89
2023-05-17T19:02:54.874Z,16.85
2023-05-17T19:05:23.452Z,16.78
2023-05-17T19:07:51.846Z,16.80
2023-05-17T19:10:22.346Z,16.79
2023-05-17T19:12:50.759Z,16.74
2023-05-17T19:15:19.377Z,16.69
2023-05-17T19:17:48.003Z,16.66
2023-05-17T19:20:16.756Z,16.68
2023-05-17T19:22:45.170Z,16.66
2023-05-17T19:25:16.128Z,16.64
2023-05-17T19:27:46.440Z,16.64
2023-05-17T19:30:14.904Z,16.59
2023-05-17T19:32:43.389Z,16.57
2023-05-17T19:35:12.152Z,16.54
2023-05-17T19:37:40.520Z,16.42
2023-05-17T19:40:10.120Z,16.42
2023-05-17T19:42:39.506Z,16.33
2023-05-17T19:45:11.204Z,16.32
2023-05-17T19:47:39.722Z,16.30
2023-05-17T19:50:09.076Z,16.24
2023-05-17T19:52:37.457Z,16.19
2023-05-17T19:55:06.450Z,16.15
2023-05-17T19:57:35.028Z,16.11
2023-05-17T20:00:04.398Z,16.04
2023-05-17T20:02:34.250Z,16.00
2023-05-17T20:05:03.849Z,15.97
2023-05-17T20:07:33.364Z,15.91
2023-05-17T20:10:01.861Z,15.89
2023-05-17T20:12:30.908Z,15.88
2023-05-17T20:14:59.363Z,15.86
2023-05-17T20:17:27.835Z,15.87
2023-05-17T20:19:57.582Z,15.82
2023-05-17T20:22:26.126Z,15.76
2023-05-17T20:24:55.812Z,15.72
2023-05-17T20:27:27.064Z,15.69
2023-05-17T20:29:55.574Z,15.67
2023-05-17T20:32:24.075Z,15.63
2023-05-17T20:34:52.481Z,15.64
2023-05-17T20:37:22.259Z,15.65
2023-05-17T20:39:51.477Z,15.62
2023-05-17T20:42:20.553Z,15.64
2023-05-17T20:44:49.261Z,15.60
2023-05-17T20:47:17.657Z,15.59
2023-05-17T20:49:46.069Z,15.60
2023-05-17T20:52:16.255Z,15.59
2023-05-17T20:54:47.697Z,15.56
2023-05-17T20:57:16.298Z,15.56
2023-05-17T20:59:45.475Z,15.50
2023-05-17T21:02:13.915Z,15.52
2023-05-17T21:04:42.342Z,15.49
2023-05-17T21:07:11.420Z,15.51
2023-05-17T21:09:39.821Z,15.53
2023-05-17T21:12:09.876Z,15.53
2023-05-17T21:14:38.349Z,15.52
2023-05-17T21:17:06.877Z,15.49
2023-05-17T21:19:35.267Z,15.49
2023-05-17T21:22:03.688Z,15.48
2023-05-17T21:24:32.063Z,15.46
2023-05-17T21:27:01.347Z,15.46
2023-05-17T21:29:31.134Z,15.43
2023-05-17T21:31:59.633Z,15.43
2023-05-17T21:34:28.003Z,15.41
2023-05-17T21:36:56.345Z,15.35
2023-05-17T21:39:24.712Z,15.33
2023-05-17T21:41:53.063Z,15.29
2023-05-17T21:44:21.521Z,15.29
2023-05-17T21:46:51.349Z,15.29
2023-05-17T21:49:19.782Z,15.24
2023-05-17T21:51:48.202Z,15.17
2023-05-17T21:54:17.340Z,15.12
2023-05-17T21:56:45.861Z,15.06
2023-05-17T21:59:14.692Z,14.88
2023-05-17T22:01:44.183Z,14.92
2023-05-17T22:04:14.584Z,15.01
2023-05-17T22:06:42.981Z,14.97
2023-05-17T22:09:12.204Z,14.91
2023-05-17T22:11:40.735Z,14.86
2023-05-17T22:14:09.314Z,14.85
2023-05-17T22:16:37.885Z,14.81
2023-05-17T22:19:07.222Z,14.77
2023-05-17T22:21:38.731Z,14.67
2023-05-17T22:24:09.295Z,14.61
2023-05-17T22:26:37.820Z,14.32
2023-05-17T22:29:06.926Z,14.43
2023-05-17T22:31:37.743Z,14.35
2023-05-17T22:34:06.873Z,14.35
2023-05-17T22:36:36.698Z,14.42
2023-05-17T22:39:05.450Z,14.42
2023-05-17T22:41:33.925Z,14.42
2023-05-17T22:44:02.404Z,14.45
2023-05-17T22:46:32.151Z,14.46
2023-05-17T22:49:01.747Z,14.47
2023-05-17T22:51:30.212Z,14.49
2023-05-17T22:54:00.036Z,14.49
2023-05-17T22:56:28.414Z,14.45
2023-05-17T22:58:56.927Z,14.45
2023-05-17T23:01:25.778Z,14.47
2023-05-17T23:03:54.520Z,14.39
2023-05-17T23:06:24.545Z,14.38
2023-05-17T23:08:53.973Z,14.42
2023-05-17T23:11:24.795Z,14.44
2023-05-17T23:13:53.209Z,14.48
2023-05-17T23:16:26.213Z,14.51
2023-05-17T23:18:54.907Z,14.52
2023-05-17T23:21:23.312Z,14.52
2023-05-17T23:23:53.724Z,14.47
2023-05-17T23:26:22.220Z,14.44
2023-05-17T23:28:53.774Z,14.42
2023-05-17T23:31:23.024Z,14.44
2023-05-17T23:33:51.826Z,14.43
2023-05-17T23:36:21.877Z,14.44
2023-05-17T23:38:51.365Z,14.43
2023-05-17T23:41:24.026Z,14.43
2023-05-17T23:43:53.863Z,14.46
2023-05-17T23:46:22.509Z,14.44
2023-05-17T23:48:51.362Z,14.45
2023-05-17T23:51:20.744Z,14.42
2023-05-17T23:53:49.995Z,14.39
2023-05-17T23:56:19.214Z,14.39
2023-05-17T23:58:47.937Z,14.34
